Time;durP1;ratioP1;P1;durP2;ratioP2;P2;SDS_P1;SDS_P2;PMS_P1;PMS_P2;Temp;Humidity;BMP_temperature;BMP_pressure;BME280_temperature;BME280_humidity;BME280_pressure;Samples;Min_cycle;Max_cycle;Signal;HPM_P1;HPM_P2
2022/07/16 00:03:40;;;;;;;;;;;;;;;;;;5052631;28;19931;-43
2022/07/16 00:06:06;;;;;;;;;;;;;;;;;;5052196;28;20344;-42
2022/07/16 00:08:31;;;;;;;;;;;;;;;;;;5052243;28;19915;-42
2022/07/16 00:10:56;;;;;;;;;;;;;;;;;;5052175;28;20008;-42
2022/07/16 00:13:22;;;;;;;;;;;;;;;;;;5052212;28;20015;-43
2022/07/16 00:15:47;;;;;;;;;;;;;;;;;;5051917;28;19927;-43
2022/07/16 00:20:56;;;;;;;;;;;;;;;;;;5052000;28;20350;-43
2022/07/16 00:23:21;;;;;;;;;;;;;;;;;;5052251;28;19909;-42
2022/07/16 00:25:46;;;;;;;;;;;;;;;;;;5051881;28;20438;-42
2022/07/16 00:28:12;;;;;;;;;;;;;;;;;;5052161;28;19973;-43
2022/07/16 00:30:37;;;;;;;;;;;;;;;;;;5052176;28;19909;-42
2022/07/16 00:33:02;;;;;;;;;;;;;;;;;;5052131;28;20347;-43
2022/07/16 00:35:27;;;;;;;;;;;;;;;;;;5051967;28;20266;-42
2022/07/16 00:37:53;;;;;;;;;;;;;;;;;;5051723;28;20371;-44
2022/07/16 00:40:18;;;;;;;;;;;;;;;;;;5051939;28;19920;-42
2022/07/16 00:42:43;;;;;;;;;;;;;;;;;;5052020;28;19964;-43
2022/07/16 00:45:08;;;;;;;;;;;;;;;;;;5051877;28;19913;-43
2022/07/16 00:47:34;;;;;;;;;;;;;;;;;;5051736;28;19950;-42
2022/07/16 00:49:59;;;;;;;;;;;;;;;;;;5051658;28;19927;-45
2022/07/16 00:52:25;;;;;;;;;;;;;;;;;;5051852;28;20019;-43
2022/07/16 00:54:50;;;;;;;;;;;;;;;;;;5051562;28;19916;-43
2022/07/16 00:57:15;;;;;;;;;;;;;;;;;;5051474;28;19955;-43
2022/07/16 00:59:40;;;;;;;;;;;;;;;;;;5056032;28;19943;-43
2022/07/16 01:02:06;;;;;;;;;;;;;;;;;;5054355;28;20279;-43
2022/07/16 01:04:31;;;;;;;;;;;;;;;;;;5055634;28;20386;-44
2022/07/16 01:06:56;;;;;;;;;;;;;;;;;;5055993;28;19908;-43
2022/07/16 01:09:22;;;;;;;;;;;;;;;;;;5055746;28;19915;-43
2022/07/16 01:11:47;;;;;;;;;;;;;;;;;;5055526;28;19904;-44
2022/07/16 01:14:13;;;;;;;;;;;;;;;;;;5055411;28;19938;-42
2022/07/16 01:16:38;;;;;;;;;;;;;;;;;;5055338;28;20003;-43
2022/07/16 01:19:03;;;;;;;;;;;;;;;;;;5055345;28;19916;-42
2022/07/16 01:21:28;;;;;;;;;;;;;;;;;;5055601;28;19947;-42
2022/07/16 01:23:54;;;;;;;;;;;;;;;;;;5055221;28;20366;-43
2022/07/16 01:26:19;;;;;;;;;;;;;;;;;;5055253;28;19904;-43
2022/07/16 01:28:44;;;;;;;;;;;;;;;;;;5055299;28;20433;-42
2022/07/16 01:31:09;;;;;;;;;;;;;;;;;;5055120;28;19909;-43
2022/07/16 01:33:35;;;;;;;;;;;;;;;;;;5055474;28;19912;-43
2022/07/16 01:36:00;;;;;;;;;;;;;;;;;;5055442;28;19958;-42
2022/07/16 01:38:25;;;;;;;;;;;;;;;;;;5054856;28;20436;-43
2022/07/16 01:40:50;;;;;;;;;;;;;;;;;;5055044;28;19911;-44
2022/07/16 01:43:16;;;;;;;;;;;;;;;;;;5054821;28;20003;-42
2022/07/16 01:45:41;;;;;;;;;;;;;;;;;;5055008;28;19905;-42
2022/07/16 01:48:06;;;;;;;;;;;;;;;;;;5055141;28;19913;-43
2022/07/16 01:50:32;;;;;;;;;;;;;;;;;;5055219;28;19909;-43
2022/07/16 01:52:57;;;;;;;;;;;;;;;;;;5055072;28;20011;-43
2022/07/16 01:55:22;;;;;;;;;;;;;;;;;;5054607;28;20301;-42
2022/07/16 01:57:47;;;;;;;;;;;;;;;;;;5055114;28;19909;-43
2022/07/16 02:00:13;;;;;;;;;;;;;;;;;;5054578;28;19931;-46
2022/07/16 02:02:38;;;;;;;;;;;;;;;;;;5054734;28;19919;-42
2022/07/16 02:05:03;;;;;;;;;;;;;;;;;;5054510;28;20389;-42
2022/07/16 02:07:28;;;;;;;;;;;;;;;;;;5054385;28;20367;-42
2022/07/16 02:09:54;;;;;;;;;;;;;;;;;;5054464;28;19905;-43
2022/07/16 02:12:19;;;;;;;;;;;;;;;;;;5054642;28;19916;-43
2022/07/16 02:14:44;;;;;;;;;;;;;;;;;;5054210;28;20529;-43
2022/07/16 02:17:09;;;;;;;;;;;;;;;;;;5054622;28;19922;-43
2022/07/16 02:19:35;;;;;;;;;;;;;;;;;;5054509;28;20368;-42
2022/07/16 02:22:01;;;;;;;;;;;;;;;;;;5054312;28;19962;-43
2022/07/16 02:24:26;;;;;;;;;;;;;;;;;;5054415;28;20396;-42
2022/07/16 02:26:51;;;;;;;;;;;;;;;;;;5054032;28;19931;-43
2022/07/16 02:29:17;;;;;;;;;;;;;;;;;;5054343;28;19935;-42
2022/07/16 02:31:42;;;;;;;;;;;;;;;;;;5054090;28;19912;-41
2022/07/16 02:34:07;;;;;;;;;;;;;;;;;;5053838;28;20007;-43
2022/07/16 02:36:32;;;;;;;;;;;;;;;;;;5054234;28;19917;-42
2022/07/16 02:38:58;;;;;;;;;;;;;;;;;;5054130;28;19931;-42
2022/07/16 02:41:23;;;;;;;;;;;;;;;;;;5053870;28;19912;-43
2022/07/16 02:43:48;;;;;;;;;;;;;;;;;;5053897;28;20347;-43
2022/07/16 02:46:13;;;;;;;;;;;;;;;;;;5053750;28;19913;-42
2022/07/16 02:48:39;;;;;;;;;;;;;;;;;;5054061;28;19908;-42
2022/07/16 02:51:04;;;;;;;;;;;;;;;;;;5054118;28;20537;-42
2022/07/16 02:53:29;;;;;;;;;;;;;;;;;;5053612;28;20315;-42
2022/07/16 02:55:54;;;;;;;;;;;;;;;;;;5053857;28;20377;-42
2022/07/16 02:58:20;;;;;;;;;;;;;;;;;;5053443;28;19986;-43
2022/07/16 03:00:45;;;;;;;;;;;;;;;;;;5053882;28;19932;-42
2022/07/16 03:03:10;;;;;;;;;;;;;;;;;;5053246;28;19911;-43
2022/07/16 03:05:35;;;;;;;;;;;;;;;;;;5053794;28;19916;-42
2022/07/16 03:08:00;;;;;;;;;;;;;;;;;;5053695;28;20382;-44
2022/07/16 03:10:26;;;;;;;;;;;;;;;;;;5053474;28;20458;-42
2022/07/16 03:12:51;;;;;;;;;;;;;;;;;;5053252;28;19999;-43
2022/07/16 03:15:16;;;;;;;;;;;;;;;;;;5053055;28;19916;-42
2022/07/16 03:17:41;;;;;;;;;;;;;;;;;;5053542;28;19911;-42
2022/07/16 03:20:07;;;;;;;;;;;;;;;;;;5053053;28;19924;-42
2022/07/16 03:22:32;;;;;;;;;;;;;;;;;;5053133;28;20359;-42
2022/07/16 03:24:57;;;;;;;;;;;;;;;;;;5053025;28;20015;-43
2022/07/16 03:27:22;;;;;;;;;;;;;;;;;;5052954;28;19920;-43
2022/07/16 03:29:48;;;;;;;;;;;;;;;;;;5052992;28;19915;-44
2022/07/16 03:32:13;;;;;;;;;;;;;;;;;;5052777;28;19999;-43
2022/07/16 03:34:38;;;;;;;;;;;;;;;;;;5052918;28;19909;-42
2022/07/16 03:37:03;;;;;;;;;;;;;;;;;;5053034;28;19905;-42
2022/07/16 03:39:29;;;;;;;;;;;;;;;;;;5052671;28;19978;-43
2022/07/16 03:41:54;;;;;;;;;;;;;;;;;;5052739;28;19928;-42
2022/07/16 03:44:19;;;;;;;;;;;;;;;;;;5052902;28;19908;-43
2022/07/16 03:46:44;;;;;;;;;;;;;;;;;;5052691;28;19909;-42
2022/07/16 03:49:10;;;;;;;;;;;;;;;;;;5052575;28;19909;-43
2022/07/16 03:51:35;;;;;;;;;;;;;;;;;;5052922;28;20321;-43
2022/07/16 03:54:00;;;;;;;;;;;;;;;;;;5052438;28;20278;-42
2022/07/16 03:56:26;;;;;;;;;;;;;;;;;;5052409;28;19948;-44
2022/07/16 03:58:51;;;;;;;;;;;;;;;;;;5052423;28;19967;-43
2022/07/16 04:01:16;;;;;;;;;;;;;;;;;;5052226;28;19974;-43
2022/07/16 04:03:42;;;;;;;;;;;;;;;;;;5052291;28;19935;-43
2022/07/16 04:06:07;;;;;;;;;;;;;;;;;;5052305;28;19940;-42
2022/07/16 04:08:32;;;;;;;;;;;;;;;;;;5050881;28;19912;-43
2022/07/16 04:10:57;;;;;;;;;;;;;;;;;;5052226;28;19958;-43
2022/07/16 04:13:23;;;;;;;;;;;;;;;;;;5051981;28;19912;-43
2022/07/16 04:15:48;;;;;;;;;;;;;;;;;;5051880;28;19927;-42
2022/07/16 04:18:13;;;;;;;;;;;;;;;;;;5052295;28;19921;-43
2022/07/16 04:20:39;;;;;;;;;;;;;;;;;;5052002;28;19908;-43
2022/07/16 04:23:04;;;;;;;;;;;;;;;;;;5052250;28;19999;-43
2022/07/16 04:25:29;;;;;;;;;;;;;;;;;;5051944;28;20313;-42
2022/07/16 04:27:55;;;;;;;;;;;;;;;;;;5052084;28;19947;-43
2022/07/16 04:30:20;;;;;;;;;;;;;;;;;;5051940;28;19916;-42
2022/07/16 04:32:45;;;;;;;;;;;;;;;;;;5051308;28;19916;-43
2022/07/16 04:35:11;;;;;;;;;;;;;;;;;;5050796;28;19906;-42
2022/07/16 04:37:36;;;;;;;;;;;;;;;;;;5051912;28;20011;-43
2022/07/16 04:40:01;;;;;;;;;;;;;;;;;;5051791;28;19920;-42
2022/07/16 04:42:27;;;;;;;;;;;;;;;;;;5051929;28;19931;-42
2022/07/16 04:44:52;;;;;;;;;;;;;;;;;;5051740;28;19904;-43
2022/07/16 04:47:17;;;;;;;;;;;;;;;;;;5051647;28;19927;-43
2022/07/16 04:49:43;;;;;;;;;;;;;;;;;;5051733;28;19909;-42
2022/07/16 04:52:08;;;;;;;;;;;;;;;;;;5051889;28;20390;-42
2022/07/16 04:54:33;;;;;;;;;;;;;;;;;;5051764;28;19915;-43
2022/07/16 04:56:58;;;;;;;;;;;;;;;;;;5051848;28;19912;-43
2022/07/16 04:59:24;;;;;;;;;;;;;;;;;;5051432;28;19913;-42
2022/07/16 05:01:49;;;;;;;;;;;;;;;;;;5051641;28;19908;-43
2022/07/16 05:04:14;;;;;;;;;;;;;;;;;;5050029;28;20000;-41
2022/07/16 05:06:40;;;;;;;;;;;;;;;;;;5051624;28;19913;-44
2022/07/16 05:09:05;;;;;;;;;;;;;;;;;;5051839;28;19905;-42
2022/07/16 05:11:30;;;;;;;;;;;;;;;;;;5051444;28;19952;-42
2022/07/16 05:13:55;;;;;;;;;;;;;;;;;;5051421;28;20488;-42
2022/07/16 05:16:21;;;;;;;;;;;;;;;;;;5051346;28;19962;-43
2022/07/16 05:18:47;;;;;;;;;;;;;;;;;;5051136;28;19916;-42
2022/07/16 05:21:12;;;;;;;;;;;;;;;;;;5051488;28;19973;-42
2022/07/16 05:23:38;;;;;;;;;;;;;;;;;;5051402;28;20027;-42
2022/07/16 05:26:03;;;;;;;;;;;;;;;;;;5051364;28;19917;-43
2022/07/16 05:28:28;;;;;;;;;;;;;;;;;;5051382;28;19967;-42
2022/07/16 05:30:53;;;;;;;;;;;;;;;;;;5051400;28;19909;-43
2022/07/16 05:33:19;;;;;;;;;;;;;;;;;;5051419;28;20369;-42
2022/07/16 05:35:44;;;;;;;;;;;;;;;;;;5051243;28;20018;-42
2022/07/16 05:38:10;;;;;;;;;;;;;;;;;;5051620;28;19908;-43
2022/07/16 05:40:36;;;;;;;;;;;;;;;;;;5049917;28;19908;-42
2022/07/16 05:43:01;;;;;;;;;;;;;;;;;;5051135;28;20263;-42
2022/07/16 05:45:27;;;;;;;;;;;;;;;;;;5054829;28;19913;-42
2022/07/16 05:47:52;;;;;;;;;;;;;;;;;;5053633;28;19904;-42
2022/07/16 05:50:17;;;;;;;;;;;;;;;;;;5055053;28;19908;-42
2022/07/16 05:52:43;;;;;;;;;;;;;;;;;;5054925;28;20364;-43
2022/07/16 05:55:08;;;;;;;;;;;;;;;;;;5054992;28;19962;-43
2022/07/16 05:57:33;;;;;;;;;;;;;;;;;;5054744;28;20308;-43
2022/07/16 05:59:59;;;;;;;;;;;;;;;;;;5054935;28;19916;-42
2022/07/16 06:02:24;;;;;;;;;;;;;;;;;;5054624;28;19904;-43
2022/07/16 06:04:49;;;;;;;;;;;;;;;;;;5054554;28;19909;-42
2022/07/16 06:07:15;;;;;;;;;;;;;;;;;;5054473;28;19915;-43
2022/07/16 06:09:40;;;;;;;;;;;;;;;;;;5054486;28;19920;-42
2022/07/16 06:12:05;;;;;;;;;;;;;;;;;;5053220;28;19908;-43
2022/07/16 06:14:31;;;;;;;;;;;;;;;;;;5054578;28;19943;-42
2022/07/16 06:16:57;;;;;;;;;;;;;;;;;;5052942;28;19951;-41
2022/07/16 06:19:22;;;;;;;;;;;;;;;;;;5054503;28;19917;-41
2022/07/16 06:21:47;;;;;;;;;;;;;;;;;;5054283;28;20355;-43
2022/07/16 06:24:12;;;;;;;;;;;;;;;;;;5054108;28;20290;-41
2022/07/16 06:26:46;;;;;;;;;;;;;;;;;;5054473;28;20021;-42
2022/07/16 06:29:12;;;;;;;;;;;;;;;;;;5054132;28;20434;-41
2022/07/16 06:31:37;;;;;;;;;;;;;;;;;;5054205;28;19919;-42
2022/07/16 06:34:02;;;;;;;;;;;;;;;;;;5053992;28;19920;-40
2022/07/16 06:36:28;;;;;;;;;;;;;;;;;;5053971;28;19905;-44
2022/07/16 06:38:53;;;;;;;;;;;;;;;;;;5052593;28;20019;-42
2022/07/16 06:41:18;;;;;;;;;;;;;;;;;;5053872;28;20355;-42
2022/07/16 06:43:44;;;;;;;;;;;;;;;;;;5053852;28;19935;-41
2022/07/16 06:46:10;;;;;;;;;;;;;;;;;;5053823;28;19904;-42
2022/07/16 06:48:35;;;;;;;;;;;;;;;;;;5054074;28;19974;-43
2022/07/16 06:51:01;;;;;;;;;;;;;;;;;;5053728;28;19908;-42
2022/07/16 06:53:27;;;;;;;;;;;;;;;;;;5053589;28;19955;-43
2022/07/16 06:55:53;;;;;;;;;;;;;;;;;;5053101;28;19944;-41
2022/07/16 06:58:18;;;;;;;;;;;;;;;;;;5053706;28;19956;-45
2022/07/16 07:00:44;;;;;;;;;;;;;;;;;;5053558;28;19959;-42
2022/07/16 07:03:11;;;;;;;;;;;;;;;;;;5053517;28;19936;-43
2022/07/16 07:05:37;;;;;;;;;;;;;;;;;;5053453;28;19912;-42
2022/07/16 07:08:02;;;;;;;;;;;;;;;;;;5053450;28;20263;-42
2022/07/16 07:10:28;;;;;;;;;;;;;;;;;;5053572;28;19909;-42
2022/07/16 07:12:53;;;;;;;;;;;;;;;;;;5053199;28;19940;-42
2022/07/16 07:15:19;;;;;;;;;;;;;;;;;;5053119;28;20295;-44
2022/07/16 07:17:45;;;;;;;;;;;;;;;;;;5052008;28;19964;-42
2022/07/16 07:20:11;;;;;;;;;;;;;;;;;;5053452;28;19967;-42
2022/07/16 07:22:36;;;;;;;;;;;;;;;;;;5053327;28;20007;-42
2022/07/16 07:25:01;;;;;;;;;;;;;;;;;;5053422;28;20066;-43
2022/07/16 07:27:27;;;;;;;;;;;;;;;;;;5053235;28;19954;-43
2022/07/16 07:29:52;;;;;;;;;;;;;;;;;;5053092;28;20011;-44
2022/07/16 07:32:17;;;;;;;;;;;;;;;;;;5051642;28;19916;-45
2022/07/16 07:34:43;;;;;;;;;;;;;;;;;;5052859;28;20285;-42
2022/07/16 07:37:08;;;;;;;;;;;;;;;;;;5052947;28;19916;-43
2022/07/16 07:39:34;;;;;;;;;;;;;;;;;;5052712;28;19916;-43
2022/07/16 07:41:59;;;;;;;;;;;;;;;;;;5052785;28;20274;-42
2022/07/16 07:44:24;;;;;;;;;;;;;;;;;;5052912;28;19905;-42
2022/07/16 07:46:51;;;;;;;;;;;;;;;;;;5052716;28;19912;-41
2022/07/16 07:49:16;;;;;;;;;;;;;;;;;;5052522;28;20329;-42
2022/07/16 07:51:41;;;;;;;;;;;;;;;;;;5052696;28;19912;-42
2022/07/16 07:54:07;;;;;;;;;;;;;;;;;;5052465;28;19909;-42
2022/07/16 07:56:32;;;;;;;;;;;;;;;;;;5052393;28;19913;-42
2022/07/16 07:58:58;;;;;;;;;;;;;;;;;;5052404;28;19920;-43
2022/07/16 08:01:23;;;;;;;;;;;;;;;;;;5052627;28;19913;-41
2022/07/16 08:03:48;;;;;;;;;;;;;;;;;;5052638;28;20351;-43
2022/07/16 08:06:14;;;;;;;;;;;;;;;;;;5052404;28;19909;-42
2022/07/16 08:08:39;;;;;;;;;;;;;;;;;;5052242;28;20370;-41
2022/07/16 08:11:04;;;;;;;;;;;;;;;;;;5052234;28;19995;-42
2022/07/16 08:13:29;;;;;;;;;;;;;;;;;;5052113;28;19912;-43
2022/07/16 08:15:55;;;;;;;;;;;;;;;;;;5052153;28;19921;-42
2022/07/16 08:18:20;;;;;;;;;;;;;;;;;;5052022;28;20278;-42
2022/07/16 08:20:45;;;;;;;;;;;;;;;;;;5052350;28;19909;-42
2022/07/16 08:23:11;;;;;;;;;;;;;;;;;;5052259;28;19904;-43
2022/07/16 08:25:45;;;;;;;;;;;;;;;;;;5051902;28;19909;-42
2022/07/16 08:28:10;;;;;;;;;;;;;;;;;;5050635;28;20329;-43
2022/07/16 08:30:36;;;;;;;;;;;;;;;;;;5052125;28;19913;-42
2022/07/16 08:33:01;;;;;;;;;;;;;;;;;;5051848;28;19912;-42
2022/07/16 08:35:26;;;;;;;;;;;;;;;;;;5052038;28;19931;-42
2022/07/16 08:37:52;;;;;;;;;;;;;;;;;;5051741;28;19908;-42
2022/07/16 08:40:17;;;;;;;;;;;;;;;;;;5051649;28;19912;-43
2022/07/16 08:42:43;;;;;;;;;;;;;;;;;;5051766;28;19912;-42
2022/07/16 08:45:08;;;;;;;;;;;;;;;;;;5051711;28;19912;-42
2022/07/16 08:47:33;;;;;;;;;;;;;;;;;;5051666;28;19952;-43
2022/07/16 08:49:59;;;;;;;;;;;;;;;;;;5051693;28;19936;-42
2022/07/16 08:52:24;;;;;;;;;;;;;;;;;;5051555;28;19979;-42
2022/07/16 08:54:50;;;;;;;;;;;;;;;;;;5051984;28;19909;-42
2022/07/16 08:57:15;;;;;;;;;;;;;;;;;;5051522;28;19959;-43
2022/07/16 08:59:40;;;;;;;;;;;;;;;;;;5051680;28;19917;-43
2022/07/16 09:02:06;;;;;;;;;;;;;;;;;;5051934;28;20406;-42
2022/07/16 09:04:31;;;;;;;;;;;;;;;;;;5051417;28;20003;-42
2022/07/16 09:06:56;;;;;;;;;;;;;;;;;;5051569;28;20009;-42
2022/07/16 09:09:21;;;;;;;;;;;;;;;;;;5051383;28;20354;-43
2022/07/16 09:11:47;;;;;;;;;;;;;;;;;;5051763;28;19995;-43
2022/07/16 09:14:13;;;;;;;;;;;;;;;;;;5051728;28;19936;-42
2022/07/16 09:16:38;;;;;;;;;;;;;;;;;;5051360;28;20066;-42
2022/07/16 09:19:03;;;;;;;;;;;;;;;;;;5052997;28;20000;-43
2022/07/16 09:21:29;;;;;;;;;;;;;;;;;;5055613;28;20354;-43
2022/07/16 09:23:54;;;;;;;;;;;;;;;;;;5054027;28;19939;-42
2022/07/16 09:26:19;;;;;;;;;;;;;;;;;;5055283;28;19919;-43
2022/07/16 09:28:46;;;;;;;;;;;;;;;;;;5055283;28;19905;-43
2022/07/16 09:31:12;;;;;;;;;;;;;;;;;;5055560;28;20010;-44
2022/07/16 09:33:37;;;;;;;;;;;;;;;;;;5055102;28;20427;-42
2022/07/16 09:36:04;;;;;;;;;;;;;;;;;;5055103;28;19919;-43
2022/07/16 09:38:29;;;;;;;;;;;;;;;;;;5054983;28;19916;-42
2022/07/16 09:40:54;;;;;;;;;;;;;;;;;;5055343;28;20275;-42
2022/07/16 09:43:20;;;;;;;;;;;;;;;;;;5055225;28;19908;-42
2022/07/16 09:45:45;;;;;;;;;;;;;;;;;;5055054;28;20450;-43
2022/07/16 09:48:11;;;;;;;;;;;;;;;;;;5054932;28;19951;-44
2022/07/16 09:50:36;;;;;;;;;;;;;;;;;;5054857;28;19954;-42
2022/07/16 09:53:01;;;;;;;;;;;;;;;;;;5055094;28;19950;-41
2022/07/16 09:55:27;;;;;;;;;;;;;;;;;;5054965;28;19912;-42
2022/07/16 09:57:52;;;;;;;;;;;;;;;;;;5055048;28;19911;-42
2022/07/16 10:00:18;;;;;;;;;;;;;;;;;;5054811;28;19996;-44
2022/07/16 10:02:44;;;;;;;;;;;;;;;;;;5054573;28;19908;-42
2022/07/16 10:05:09;;;;;;;;;;;;;;;;;;5054664;28;20010;-41
2022/07/16 10:07:34;;;;;;;;;;;;;;;;;;5054820;28;19909;-43
2022/07/16 10:10:00;;;;;;;;;;;;;;;;;;5054488;28;19935;-43
2022/07/16 10:12:25;;;;;;;;;;;;;;;;;;5054634;28;19955;-44
2022/07/16 10:14:50;;;;;;;;;;;;;;;;;;5054591;28;20033;-42
2022/07/16 10:17:16;;;;;;;;;;;;;;;;;;5054525;28;20351;-43
2022/07/16 10:19:41;;;;;;;;;;;;;;;;;;5054536;28;19916;-42
2022/07/16 10:22:06;;;;;;;;;;;;;;;;;;5054243;28;19911;-43
2022/07/16 10:24:32;;;;;;;;;;;;;;;;;;5054098;28;19909;-43
2022/07/16 10:26:57;;;;;;;;;;;;;;;;;;5054212;28;19905;-43
2022/07/16 10:29:23;;;;;;;;;;;;;;;;;;5054019;28;19983;-42
2022/07/16 10:34:32;;;;;;;;;;;;;;;;;;5054065;28;19963;-41
2022/07/16 10:36:58;;;;;;;;;;;;;;;;;;5054013;28;19905;-42
2022/07/16 10:39:23;;;;;;;;;;;;;;;;;;5053782;28;20023;-42
2022/07/16 10:41:49;;;;;;;;;;;;;;;;;;5054034;28;20274;-42
2022/07/16 10:44:14;;;;;;;;;;;;;;;;;;5054140;28;20305;-42
2022/07/16 10:46:40;;;;;;;;;;;;;;;;;;5054153;28;20378;-42
2022/07/16 10:49:05;;;;;;;;;;;;;;;;;;5054061;28;20362;-43
2022/07/16 10:51:30;;;;;;;;;;;;;;;;;;5053783;28;20769;-44
2022/07/16 10:54:01;;;;;;;;;;;;;;;;;;5053946;28;20271;-43
2022/07/16 10:56:27;;;;;;;;;;;;;;;;;;5053645;28;19909;-43
2022/07/16 10:58:52;;;;;;;;;;;;;;;;;;5053625;28;20321;-42
2022/07/16 11:01:17;;;;;;;;;;;;;;;;;;5053524;28;19908;-44
2022/07/16 11:03:43;;;;;;;;;;;;;;;;;;5053767;28;19919;-43
2022/07/16 11:06:11;;;;;;;;;;;;;;;;;;5053507;28;19978;-43
2022/07/16 11:08:36;;;;;;;;;;;;;;;;;;5053364;28;20022;-43
2022/07/16 11:11:01;;;;;;;;;;;;;;;;;;5053733;28;20360;-43
2022/07/16 11:13:27;;;;;;;;;;;;;;;;;;5053193;28;19905;-42
2022/07/16 11:15:53;;;;;;;;;;;;;;;;;;5053354;28;19924;-43
2022/07/16 11:18:18;;;;;;;;;;;;;;;;;;5053191;28;19906;-42
2022/07/16 11:20:44;;;;;;;;;;;;;;;;;;5053489;28;19938;-42
2022/07/16 11:23:10;;;;;;;;;;;;;;;;;;5053439;28;19905;-42
2022/07/16 11:25:35;;;;;;;;;;;;;;;;;;5053054;28;20315;-42
2022/07/16 11:28:01;;;;;;;;;;;;;;;;;;5053046;28;19999;-41
2022/07/16 11:30:29;;;;;;;;;;;;;;;;;;5053005;28;20367;-42
2022/07/16 11:32:55;;;;;;;;;;;;;;;;;;5052908;28;19908;-43
2022/07/16 11:35:20;;;;;;;;;;;;;;;;;;5052827;28;19908;-42
2022/07/16 11:37:49;;;;;;;;;;;;;;;;;;5052915;28;20005;-42
2022/07/16 11:40:15;;;;;;;;;;;;;;;;;;5051495;28;20378;-42
2022/07/16 11:42:41;;;;;;;;;;;;;;;;;;5052393;28;19904;-43
2022/07/16 11:45:07;;;;;;;;;;;;;;;;;;5052724;28;19909;-42
2022/07/16 11:47:32;;;;;;;;;;;;;;;;;;5052653;28;20434;-42
2022/07/16 11:49:58;;;;;;;;;;;;;;;;;;5052609;28;19909;-44
2022/07/16 11:52:26;;;;;;;;;;;;;;;;;;5052527;28;19908;-42
2022/07/16 11:54:52;;;;;;;;;;;;;;;;;;5052650;28;20397;-42
2022/07/16 11:57:17;;;;;;;;;;;;;;;;;;5052312;28;19951;-42
2022/07/16 11:59:47;;;;;;;;;;;;;;;;;;5052453;28;19923;-43
2022/07/16 12:02:13;;;;;;;;;;;;;;;;;;5052622;28;19915;-41
2022/07/16 12:04:39;;;;;;;;;;;;;;;;;;5052284;28;19909;-43
2022/07/16 12:07:04;;;;;;;;;;;;;;;;;;5052400;28;19909;-43
2022/07/16 12:09:30;;;;;;;;;;;;;;;;;;5052210;28;19916;-43
2022/07/16 12:11:55;;;;;;;;;;;;;;;;;;5052218;28;19904;-42
2022/07/16 12:14:21;;;;;;;;;;;;;;;;;;5052202;28;20034;-43
2022/07/16 12:16:47;;;;;;;;;;;;;;;;;;5052032;28;19971;-42
2022/07/16 12:19:13;;;;;;;;;;;;;;;;;;5050806;28;19920;-42
2022/07/16 12:21:41;;;;;;;;;;;;;;;;;;5052091;28;19920;-42
2022/07/16 12:24:06;;;;;;;;;;;;;;;;;;5052272;28;19915;-42
2022/07/16 12:26:31;;;;;;;;;;;;;;;;;;5052234;28;19911;-43
2022/07/16 12:28:57;;;;;;;;;;;;;;;;;;5052053;28;19908;-42
2022/07/16 12:31:22;;;;;;;;;;;;;;;;;;5052170;28;19909;-46
2022/07/16 12:33:47;;;;;;;;;;;;;;;;;;5052144;28;19913;-43
2022/07/16 12:36:13;;;;;;;;;;;;;;;;;;5052203;28;19904;-43
2022/07/16 12:38:38;;;;;;;;;;;;;;;;;;5052037;28;20626;-43
2022/07/16 12:41:03;;;;;;;;;;;;;;;;;;5052109;28;19920;-44
2022/07/16 12:43:29;;;;;;;;;;;;;;;;;;5051687;28;19916;-43
2022/07/16 12:45:54;;;;;;;;;;;;;;;;;;5050467;28;19934;-42
2022/07/16 12:48:20;;;;;;;;;;;;;;;;;;5051760;28;20278;-42
2022/07/16 12:50:45;;;;;;;;;;;;;;;;;;5052062;28;19964;-42
2022/07/16 12:53:11;;;;;;;;;;;;;;;;;;5050881;28;20359;-43
2022/07/16 13:01:05;;;;;;;;;;;;;;;;;;5051841;28;19923;-42
2022/07/16 13:03:30;;;;;;;;;;;;;;;;;;5051450;28;19909;-42
2022/07/16 13:05:56;;;;;;;;;;;;;;;;;;5051666;28;19967;-42
2022/07/16 13:08:21;;;;;;;;;;;;;;;;;;5051458;28;19928;-43
2022/07/16 13:10:47;;;;;;;;;;;;;;;;;;5051862;28;19909;-42
2022/07/16 13:13:13;;;;;;;;;;;;;;;;;;5051740;28;19905;-43
2022/07/16 13:15:39;;;;;;;;;;;;;;;;;;5051111;28;20013;-42
2022/07/16 13:18:04;;;;;;;;;;;;;;;;;;5050199;28;19986;-42
2022/07/16 13:20:33;;;;;;;;;;;;;;;;;;5051210;28;19917;-42
2022/07/16 13:22:59;;;;;;;;;;;;;;;;;;5051361;28;20106;-43
2022/07/16 13:25:24;;;;;;;;;;;;;;;;;;5051369;28;20455;-43
2022/07/16 13:27:50;;;;;;;;;;;;;;;;;;5051655;28;20389;-43
2022/07/16 13:30:22;;;;;;;;;;;;;;;;;;5051366;28;19912;-42
2022/07/16 13:32:49;;;;;;;;;;;;;;;;;;5051311;28;19908;-42
2022/07/16 13:35:15;;;;;;;;;;;;;;;;;;5051315;28;19909;-43
2022/07/16 13:37:43;;;;;;;;;;;;;;;;;;5049914;28;19966;-42
2022/07/16 13:40:09;;;;;;;;;;;;;;;;;;5051140;28;19963;-42
2022/07/16 13:42:34;;;;;;;;;;;;;;;;;;5051328;28;19912;-42
2022/07/16 13:45:00;;;;;;;;;;;;;;;;;;5051450;28;19915;-43
2022/07/16 13:47:26;;;;;;;;;;;;;;;;;;5051071;28;19919;-42
2022/07/16 13:49:51;;;;;;;;;;;;;;;;;;5051152;28;20270;-44
2022/07/16 13:52:16;;;;;;;;;;;;;;;;;;5051024;28;20003;-42
2022/07/16 13:54:42;;;;;;;;;;;;;;;;;;5051244;28;19905;-43
2022/07/16 13:59:52;;;;;;;;;;;;;;;;;;5051081;28;19924;-41
2022/07/16 14:02:17;;;;;;;;;;;;;;;;;;5051202;28;19909;-44
2022/07/16 14:04:47;;;;;;;;;;;;;;;;;;5051697;28;19909;-44
2022/07/16 14:07:13;;;;;;;;;;;;;;;;;;5054993;28;19913;-42
2022/07/16 14:09:40;;;;;;;;;;;;;;;;;;5054832;28;19919;-42
2022/07/16 14:12:06;;;;;;;;;;;;;;;;;;5053205;28;19905;-43
2022/07/16 14:14:32;;;;;;;;;;;;;;;;;;5054724;28;20122;-43
2022/07/16 14:16:58;;;;;;;;;;;;;;;;;;5054237;28;20430;-42
2022/07/16 14:19:23;;;;;;;;;;;;;;;;;;5054309;28;20019;-42
2022/07/16 14:21:49;;;;;;;;;;;;;;;;;;5054219;28;19948;-43
2022/07/16 14:24:14;;;;;;;;;;;;;;;;;;5054347;28;19909;-43
2022/07/16 14:26:41;;;;;;;;;;;;;;;;;;5054425;28;20011;-43
2022/07/16 14:29:06;;;;;;;;;;;;;;;;;;5054191;28;19908;-42
2022/07/16 14:31:32;;;;;;;;;;;;;;;;;;5054338;28;19905;-42
2022/07/16 14:33:57;;;;;;;;;;;;;;;;;;5054033;28;19931;-47
2022/07/16 14:36:23;;;;;;;;;;;;;;;;;;5054288;28;19958;-42
2022/07/16 14:38:48;;;;;;;;;;;;;;;;;;5054244;28;19912;-43
2022/07/16 14:41:13;;;;;;;;;;;;;;;;;;5053998;28;20274;-43
2022/07/16 14:43:39;;;;;;;;;;;;;;;;;;5053937;28;19916;-44
2022/07/16 14:46:04;;;;;;;;;;;;;;;;;;5054158;28;19905;-42
2022/07/16 14:48:29;;;;;;;;;;;;;;;;;;5053797;28;19967;-42
2022/07/16 14:50:58;;;;;;;;;;;;;;;;;;5053844;28;19948;-42
2022/07/16 14:53:24;;;;;;;;;;;;;;;;;;5053881;28;20098;-42
2022/07/16 14:55:49;;;;;;;;;;;;;;;;;;5053737;28;20366;-42
2022/07/16 14:58:15;;;;;;;;;;;;;;;;;;5053884;28;20002;-44
2022/07/16 15:00:41;;;;;;;;;;;;;;;;;;5053620;28;19919;-42
2022/07/16 15:03:06;;;;;;;;;;;;;;;;;;5053855;28;20370;-43
2022/07/16 15:05:32;;;;;;;;;;;;;;;;;;5053474;28;20011;-42
2022/07/16 15:07:58;;;;;;;;;;;;;;;;;;5053572;28;19963;-42
2022/07/16 15:10:23;;;;;;;;;;;;;;;;;;5053386;28;19952;-42
2022/07/16 15:12:49;;;;;;;;;;;;;;;;;;5053363;28;19912;-43
2022/07/16 15:15:14;;;;;;;;;;;;;;;;;;5053445;28;19917;-42
2022/07/16 15:17:40;;;;;;;;;;;;;;;;;;5052761;28;20003;-42
2022/07/16 15:20:08;;;;;;;;;;;;;;;;;;5053244;28;20370;-43
2022/07/16 15:22:34;;;;;;;;;;;;;;;;;;5053048;28;19919;-43
2022/07/16 15:24:59;;;;;;;;;;;;;;;;;;5053137;28;19904;-43
2022/07/16 15:27:25;;;;;;;;;;;;;;;;;;5053113;28;19909;-42
2022/07/16 15:29:53;;;;;;;;;;;;;;;;;;5053044;28;19945;-43
2022/07/16 15:32:19;;;;;;;;;;;;;;;;;;5052921;28;19919;-43
2022/07/16 15:34:44;;;;;;;;;;;;;;;;;;5053004;28;19908;-43
2022/07/16 15:37:10;;;;;;;;;;;;;;;;;;5052950;28;19913;-42
2022/07/16 15:39:36;;;;;;;;;;;;;;;;;;5052767;28;19917;-42
2022/07/16 15:42:02;;;;;;;;;;;;;;;;;;5052782;28;19963;-42
2022/07/16 15:44:27;;;;;;;;;;;;;;;;;;5051426;28;19909;-42
2022/07/16 15:46:53;;;;;;;;;;;;;;;;;;5052757;28;20079;-43
2022/07/16 15:49:18;;;;;;;;;;;;;;;;;;5052989;28;19909;-42
2022/07/16 15:51:44;;;;;;;;;;;;;;;;;;5052623;28;19917;-45
2022/07/16 15:54:09;;;;;;;;;;;;;;;;;;5052801;28;20028;-43
2022/07/16 15:56:34;;;;;;;;;;;;;;;;;;5052545;28;20710;-42
2022/07/16 15:59:00;;;;;;;;;;;;;;;;;;5052421;28;19913;-42
2022/07/16 16:01:25;;;;;;;;;;;;;;;;;;5052686;28;19932;-42
2022/07/16 16:03:50;;;;;;;;;;;;;;;;;;5052736;28;19999;-44
2022/07/16 16:06:16;;;;;;;;;;;;;;;;;;5052347;28;19915;-42
2022/07/16 16:08:41;;;;;;;;;;;;;;;;;;5052618;28;19939;-43
2022/07/16 16:11:07;;;;;;;;;;;;;;;;;;5052393;28;19913;-43
2022/07/16 16:13:32;;;;;;;;;;;;;;;;;;5034241;28;20279;-42
2022/07/16 16:15:57;;;;;;;;;;;;;;;;;;5052060;28;19921;-43
2022/07/16 16:18:23;;;;;;;;;;;;;;;;;;5052073;28;19916;-42
2022/07/16 16:20:48;;;;;;;;;;;;;;;;;;5052072;28;19924;-42
2022/07/16 16:23:13;;;;;;;;;;;;;;;;;;5052157;28;19909;-42
2022/07/16 16:25:39;;;;;;;;;;;;;;;;;;5051900;28;19912;-43
2022/07/16 16:28:05;;;;;;;;;;;;;;;;;;5051962;28;19913;-42
2022/07/16 16:30:31;;;;;;;;;;;;;;;;;;5052158;28;19967;-42
2022/07/16 16:32:57;;;;;;;;;;;;;;;;;;5051946;28;19958;-42
2022/07/16 16:35:22;;;;;;;;;;;;;;;;;;5051804;28;19909;-43
2022/07/16 16:37:47;;;;;;;;;;;;;;;;;;5051965;28;19912;-44
2022/07/16 16:40:13;;;;;;;;;;;;;;;;;;5051859;28;20325;-42
2022/07/16 16:42:38;;;;;;;;;;;;;;;;;;5051946;28;19944;-42
2022/07/16 16:45:04;;;;;;;;;;;;;;;;;;5052148;28;19913;-43
2022/07/16 16:47:29;;;;;;;;;;;;;;;;;;5051723;28;20363;-43
2022/07/16 16:49:54;;;;;;;;;;;;;;;;;;5051791;28;20369;-42